Flight Track Log - Related Links

Times and Time Zones

All times are in EDT time to prevent confusion due to time zone crossing. See the N820JA flight status page for this flight to view local times or setup timezone preferences in your user account.

Time Position Orientation Groundspeed Altitude Reporting Facility
EDT Latitude Longitude Course Direction KTS MPH feet Rate Location/Type
Fri 12:36:00 PM 39.1837 -77.1311 60° Northeast  Level Estimated
Fri 12:37:00 PM 39.1991 -77.0963 60° Northeast  Level Estimated
Fri 12:38:00 PM 39.2145 -77.0614 60° Northeast  Level Estimated
Fri 12:39:00 PM 39.2298 -77.0265 60° Northeast  Level Estimated
Fri 12:40:00 PM 39.2451 -76.9916 60° Northeast  Level Estimated
Fri 12:41:00 PM 39.2605 -76.9567 60° Northeast  Level Estimated
Fri 12:42:00 PM 39.2758 -76.9217 60° Northeast  Level Estimated
Fri 12:43:00 PM 39.2911 -76.8868 60° Northeast  Level Estimated
Fri 12:44:00 PM 39.3064 -76.8518 61° Northeast  Level Estimated
Fri 12:45:00 PM 39.3217 -76.8168 61° Northeast  Level Estimated
Fri 12:46:00 PM 39.3370 -76.7818 61° Northeast  Level Estimated
Fri 12:47:00 PM 39.3522 -76.7468 61° Northeast  Level Estimated
Fri 12:48:00 PM 39.3675 -76.7118 61° Northeast  Level Estimated
Fri 12:49:00 PM 39.3828 -76.6767 61° Northeast  Level Estimated
Fri 12:50:00 PM 39.3980 -76.6417 61° Northeast  Level Estimated
Fri 12:51:00 PM 39.4132 -76.6066 61° Northeast  Level Estimated
Fri 12:52:00 PM 39.4284 -76.5715 61° Northeast  Level Estimated
Fri 12:53:00 PM 39.4436 -76.5364 61° Northeast  Level Estimated
Fri 12:54:00 PM 39.4589 -76.5013 61° Northeast  Level Estimated
Fri 12:55:00 PM 39.4740 -76.4661 61° Northeast  Level Estimated
Fri 12:56:00 PM 39.4892 -76.4310 61° Northeast  Level Estimated
Fri 12:57:00 PM 39.5044 -76.3958 61° Northeast  Level Estimated
Fri 12:58:00 PM 39.5195 -76.3606 61° Northeast  Level Estimated
Fri 12:59:00 PM 39.5347 -76.3254 61° Northeast  Level Estimated
Fri 01:00:00 PM 39.5498 -76.2902 61° Northeast  Level Estimated
Fri 01:01:00 PM 39.5649 -76.2550 61° Northeast  Level Estimated
Fri 01:02:00 PM 39.5800 -76.2197 61° Northeast  Level Estimated
Fri 01:03:00 PM 39.5951 -76.1844 61° Northeast  Level Estimated
Fri 01:04:00 PM 39.6102 -76.1492 61° Northeast  Level Estimated
Fri 01:05:00 PM 39.6253 -76.1139 61° Northeast  Level Estimated
Fri 01:06:00 PM 39.6404 -76.0786 61° Northeast  Level Estimated
Fri 01:07:00 PM 39.6554 -76.0432 61° Northeast  Level Estimated
Fri 01:08:00 PM 39.6705 -76.0079 61° Northeast  Level Estimated
Fri 01:09:00 PM 39.6855 -75.9725 61° Northeast  Level Estimated
Fri 01:10:00 PM 39.7006 -75.9372 61° Northeast  Level Estimated
Fri 01:11:00 PM 39.7156 -75.9018 61° Northeast  Level Estimated
Fri 01:12:00 PM 39.7306 -75.8664 61° Northeast  Level Estimated
Fri 01:13:00 PM 39.7456 -75.8310 61° Northeast  Level Estimated
Fri 01:14:00 PM 39.7605 -75.7955 61° Northeast  Level Estimated
Fri 01:15:00 PM 39.7755 -75.7601 61° Northeast  Level Estimated
Fri 01:16:00 PM 39.7905 -75.7246 61° Northeast  Level Estimated
Fri 01:17:00 PM 39.8054 -75.6891 61° Northeast  Level Estimated
Fri 01:18:00 PM 39.8204 -75.6537 61° Northeast  Level Estimated
Fri 01:19:00 PM 39.8353 -75.6181 61° Northeast  Level Estimated
Fri 01:20:00 PM 39.8502 -75.5826 61° Northeast  Level Estimated
Fri 01:21:00 PM 39.8651 -75.5471 61° Northeast  Level Estimated
Fri 01:22:00 PM 39.8800 -75.5115 61° Northeast  Level Estimated
Fri 01:23:00 PM 39.8949 -75.4760 61° Northeast  Level Estimated
Fri 01:24:00 PM 39.9098 -75.4404 61° Northeast  Level Estimated
Fri 01:25:00 PM 39.9246 -75.4048 61° Northeast  Level Estimated
Fri 01:26:00 PM 39.9395 -75.3691 61° Northeast  Level Estimated
Fri 01:27:00 PM 39.9543 -75.3335 61° Northeast  Level Estimated
Fri 01:28:00 PM 39.9692 -75.2979 61° Northeast  Level Estimated
Fri 01:29:00 PM 39.9840 -75.2622 62° Northeast  Level Estimated
Fri 01:30:00 PM 39.9988 -75.2265 62° Northeast  Level Estimated
Fri 01:31:00 PM 40.0136 -75.1908 62° Northeast  Level Estimated
Fri 01:32:00 PM 40.0284 -75.1551 62° Northeast  Level Estimated
Fri 01:33:00 PM 40.0432 -75.1194 62° Northeast  Level Estimated
Fri 01:34:00 PM 40.0579 -75.0837 62° Northeast  Level Estimated
Fri 01:35:00 PM 40.0727 -75.0479 62° Northeast  Level Estimated
Fri 01:36:00 PM 40.0874 -75.0121 62° Northeast  Level Estimated
Fri 01:37:00 PM 40.1022 -74.9763 62° Northeast  Level Estimated
Fri 01:38:00 PM 40.1169 -74.9405 62° Northeast  Level Estimated
Fri 01:39:00 PM 40.1316 -74.9047 62° Northeast  Level Estimated
Fri 01:40:00 PM 40.1463 -74.8689 62° Northeast  Level Estimated
Fri 01:41:00 PM 40.1610 -74.8330 62° Northeast  Level Estimated
Fri 01:42:00 PM 40.1757 -74.7972 62° Northeast  Level Estimated
Fri 01:43:00 PM 40.1903 -74.7613 62° Northeast  Level Estimated
Fri 01:44:00 PM 40.2050 -74.7254 62° Northeast  Level Estimated
Fri 01:45:00 PM 40.2196 -74.6895 62° Northeast  Level Estimated
Fri 01:45:56 PM 39.2000 -77.1667 62° Northeast 90 104 1,500  Level Potomac TRACON
Fri 01:46:00 PM 40.2343 -74.6536 62° Northeast  Level Estimated
Fri 01:46:56 PM 39.2167 -77.1500 38° Northeast 109 125 2,000  Level Potomac TRACON
Fri 01:47:00 PM 40.2489 -74.6176 62° Northeast  Level Estimated
Fri 01:47:56 PM 39.2500 -77.1333 21° North 102 117 2,500  Level Potomac TRACON
Fri 01:48:00 PM 40.2635 -74.5817 62° Northeast  Level Estimated
Fri 01:48:56 PM 39.2667 -77.1167 38° Northeast 103 119 3,000  Level Potomac TRACON
Fri 01:49:00 PM 40.2781 -74.5457 62° Northeast  Level Estimated
Fri 01:49:50 PM 39.3000 -77.1000 21° North 100 115 3,400  Level Potomac TRACON
Fri 01:50:00 PM 40.2927 -74.5097 62° Northeast  Level Estimated
Fri 01:50:57 PM 39.3167 -77.1000 360° North 98 113 3,900  Level Potomac TRACON
Fri 01:51:00 PM 40.3073 -74.4737 62° Northeast  Level Estimated
Fri 01:51:57 PM 39.3500 -77.0667 38° Northeast 104 120 4,300  Level Potomac TRACON
Fri 01:52:57 PM 39.3500 -77.0333 90° East 112 129 4,700 450 Climbing Potomac TRACON
Fri 01:53:57 PM 39.3667 -77.0000 57° Northeast 111 128 5,200 450 Climbing Potomac TRACON
Fri 01:54:57 PM 39.3667 -76.9667 90° East 109 125 5,600 350 Climbing Potomac TRACON
Fri 01:55:57 PM 39.3500 -76.9167 113° Southeast 111 128 5,900 347 Climbing Potomac TRACON
Fri 01:56:58 PM 39.3500 -76.8833 90° East 116 133 6,300 397 Climbing Potomac TRACON
Fri 01:57:58 PM 39.3500 -76.8333 90° East 127 146 6,700 350 Climbing Potomac TRACON
Fri 01:58:58 PM 39.3500 -76.8000 90° East 119 137 7,000 150 Climbing Potomac TRACON
Fri 01:59:58 PM 39.3333 -76.7667 123° Southeast 120 138 7,000 -50 Level Potomac TRACON
Fri 02:00:58 PM 39.3167 -76.7167 113° Southeast 118 136 6,900  Descending Potomac TRACON
Fri 02:02:00 PM 39.3076 -76.6746 106° East  Level FlightAware
Fri 02:02:59 PM 39.2833 -76.6500 106° East 116 133 7,000  Level Potomac TRACON
Fri 02:03:59 PM 39.2667 -76.6167 123° Southeast 111 128 7,000  Level Potomac TRACON
Fri 02:04:59 PM 39.2667 -76.5833 90° East 108 124 7,000  Level Potomac TRACON
Fri 02:06:00 PM 39.2500 -76.5500 123° Southeast 118 136 7,000  Level Potomac TRACON
Fri 02:07:00 PM 39.2333 -76.5167 123° Southeast 118 136 7,000  Level Potomac TRACON
Fri 02:08:00 PM 39.2333 -76.4667 90° East 117 135 7,000  Level Potomac TRACON
Fri 02:09:00 PM 39.2270 -76.4253 101° East  Level FlightAware
Fri 02:11:01 PM 39.2167 -76.3667 101° East 126 145 7,000  Level Potomac TRACON
Fri 02:12:01 PM 39.2167 -76.3167 90° East 119 137 7,000  Level Potomac TRACON
Fri 02:14:02 PM 39.2167 -76.2333 90° East 117 135 7,000  Level Potomac TRACON
Fri 02:15:02 PM 39.2167 -76.1833 90° East 115 132 7,000 -107 Level Potomac TRACON
Fri 02:16:00 PM 39.1826 -76.1357 101° East  Level FlightAware
Fri 02:17:00 PM 39.2081 -76.1011 98° East  Level FlightAware
Fri 02:24:00 PM 39.3465 -75.8658 85° East  Level Estimated
Fri 02:25:00 PM 39.3329 -75.8273 115° Southeast  Level FlightAware
Fri 02:26:00 PM 39.3193 -75.7889 115° Southeast  Level FlightAware
Fri 02:27:00 PM 39.3057 -75.7505 115° Southeast  Level FlightAware
Fri 02:28:00 PM 39.3264 -75.7178 51° Northeast  Level Estimated
Fri 02:29:00 PM 39.3272 -75.6756 89° East  Level FlightAware
Fri 02:30:00 PM 39.3280 -75.6333 89° East  Level FlightAware
Fri 02:31:00 PM 39.3400 -75.5956 68° East  Level FlightAware
Fri 02:32:00 PM 39.3520 -75.5578 68° East  Level FlightAware
Fri 02:32:43 PM 39.2592 -75.4708 68° East 122 140 5,000  Level Washington Center
Fri 02:33:00 PM 39.3639 -75.5200 68° East  Level FlightAware
Fri 02:34:00 PM 39.3759 -75.4821 68° East  Level FlightAware
Fri 02:34:00 PM 39.2871 -75.4329 46° Northeast  Level Estimated
Fri 02:35:00 PM 39.3879 -75.4443 68° East  Level FlightAware
Fri 02:36:00 PM 39.3998 -75.4065 68° East  Level FlightAware
Fri 02:37:00 PM 39.4117 -75.3686 68° East  Level FlightAware
Fri 02:37:06 PM 39.3444 -75.3206 47° Northeast 122 140 5,000  Level Washington Center
Fri 02:38:00 PM 39.4237 -75.3308 68° East  Level FlightAware
Fri 02:39:00 PM 39.3740 -75.2530 61° Northeast  Level FlightAware
Fri 02:41:00 PM 39.4395 -75.2257 46° Northeast  Level Estimated
Fri 02:41:06 PM 39.4169 -75.1886 49° Northeast 116 133 5,000  Level Washington Center
Fri 02:42:00 PM 39.4613 -75.1960 47° Northeast  Level Estimated
Fri 02:43:00 PM 39.4507 -75.1244 56° Northeast  Level FlightAware
Fri 02:44:43 PM 39.4811 -75.0700 57° Northeast 116 133 5,000  Level Washington Center
Fri 02:46:00 PM 39.5287 -75.0485 49° Northeast  Level Estimated
Fri 02:46:00 PM 39.5033 -75.0261 57° Northeast  Level FlightAware
Fri 02:50:00 PM 39.6065 -74.9210 57° Northeast  Level Estimated
Fri 02:53:00 PM 39.5925 -74.8485 57° Northeast  Level FlightAware
Fri 02:54:00 PM 39.6097 -74.8141 57° Northeast  Level FlightAware
Fri 02:55:00 PM 39.6269 -74.7797 57° Northeast  Level FlightAware
Fri 02:56:00 PM 39.6441 -74.7452 57° Northeast  Level FlightAware
Fri 02:57:00 PM 39.6627 -74.7122 52° Northeast  Level FlightAware
Fri 02:58:00 PM 39.6821 -74.6798 52° Northeast  Level FlightAware
Fri 02:59:00 PM 39.7014 -74.6473 57° Northeast  Level FlightAware
Fri 03:00:00 PM 39.7186 -74.6129 57° Northeast  Level FlightAware
Fri 03:01:00 PM 39.7359 -74.5785 57° Northeast  Level FlightAware
Fri 03:02:00 PM 39.7531 -74.5440 57° Northeast  Level FlightAware
Fri 03:03:00 PM 39.7703 -74.5096 57° Northeast  Level FlightAware
Fri 03:04:00 PM 39.7870 -74.4762 57° Northeast  Level FlightAware
Fri 03:05:00 PM 39.8036 -74.4429 57° Northeast  Level FlightAware
Fri 03:06:00 PM 39.8220 -74.4118 35° Northeast  Level FlightAware
Fri 03:07:00 PM 39.8471 -74.3891 35° Northeast  Level FlightAware
Fri 03:08:00 PM 39.8722 -74.3663 35° Northeast  Level FlightAware
Fri 03:08:45 PM 39.9667 -74.2833 43° Northeast 117 135 5,000  Level New TRACON
Fri 03:09:00 PM 39.8973 -74.3435 35° Northeast  Level FlightAware
Fri 03:09:45 PM 40.0000 -74.2667 21° North 122 140 5,000  Level New TRACON
Fri 03:10:00 PM 39.9223 -74.3207 35° Northeast  Level FlightAware
Fri 03:10:45 PM 40.0167 -74.2333 57° Northeast 114 131 5,000  Level New TRACON
Fri 03:11:00 PM 39.9474 -74.2979 35° Northeast  Level FlightAware
Fri 03:11:45 PM 40.0500 -74.2167 21° North 115 132 5,000  Level New TRACON
Fri 03:12:00 PM 39.9725 -74.2751 35° Northeast  Level FlightAware
Fri 03:12:45 PM 40.0667 -74.1833 57° Northeast 122 140 5,000  Level New TRACON
Fri 03:13:00 PM 39.9975 -74.2523 35° Northeast  Level FlightAware
Fri 03:13:45 PM 40.1000 -74.1667 21° North 118 136 4,900  Level New TRACON
Fri 03:14:00 PM 40.0203 -74.2257 43° Northeast  Level FlightAware
Fri 03:14:45 PM 40.1333 -74.1500 21° North 118 136 5,000  Level New TRACON
Fri 03:15:45 PM 40.1667 -74.1167 37° Northeast 128 147 5,000  Level New TRACON
Fri 03:16:45 PM 40.1833 -74.1000 37° Northeast 124 143 5,000  Level New TRACON
Fri 03:17:45 PM 40.2167 -74.0833 21° North 115 132 5,000  Level New TRACON
Fri 03:18:45 PM 40.2500 -74.0667 21° North 119 137 5,000  Level New TRACON
Fri 03:19:45 PM 40.2833 -74.0333 37° Northeast 123 142 5,000  Level New TRACON
Fri 03:20:45 PM 40.3000 -74.0167 37° Northeast 120 138 5,000  Level New TRACON
Fri 03:21:45 PM 40.3333 -74.0000 21° North 121 139 5,000  Level New TRACON
Fri 03:22:45 PM 40.3667 -73.9667 37° Northeast 114 131 5,000  Level New TRACON
Fri 03:23:45 PM 40.3833 -73.9500 37° Northeast 115 132 5,000  Level New TRACON
Fri 03:24:45 PM 40.4167 -73.9333 21° North 122 140 5,000  Level New TRACON
Fri 03:25:45 PM 40.4500 -73.9167 21° North 117 135 5,000  Level New TRACON
Fri 03:26:45 PM 40.4833 -73.8833 37° Northeast 114 131 5,000  Level New TRACON
Fri 03:27:45 PM 40.5000 -73.8667 37° Northeast 119 137 5,000  Level New TRACON
Fri 03:28:45 PM 40.5333 -73.8500 21° North 119 137 5,000  Level New TRACON
Fri 03:29:45 PM 40.5667 -73.8167 37° Northeast 117 135 5,000  Level New TRACON
Fri 03:30:45 PM 40.5833 -73.8000 37° Northeast 116 133 5,000 -200 Level New TRACON
Fri 03:31:45 PM 40.6167 -73.7667 37° Northeast 112 129 4,600 -450 Descending New TRACON
Fri 03:32:45 PM 40.6333 -73.7500 37° Northeast 114 131 4,100 -500 Descending New TRACON
Fri 03:33:45 PM 40.6500 -73.7000 66° East 122 140 3,600 -500 Descending New TRACON
Fri 03:34:45 PM 40.6667 -73.6667 57° Northeast 124 143 3,100 -350 Descending New TRACON
Fri 03:35:45 PM 40.6833 -73.6333 57° Northeast 117 135 2,900 -350 Descending New TRACON
Fri 03:36:45 PM 40.7000 -73.6000 57° Northeast 117 135 2,400 -450 Descending New TRACON
Fri 03:37:45 PM 40.7167 -73.5500 66° East 122 140 2,000 -150 Descending New TRACON
Fri 03:38:45 PM 40.7333 -73.5167 57° Northeast 121 139 2,100 -50 Climbing New TRACON
Fri 03:39:46 PM 40.7500 -73.4833 57° Northeast 127 146 1,900 -198 Descending New TRACON
Fri 03:40:46 PM 40.7667 -73.4333 66° East 127 146 1,700 -454 Descending New TRACON
Fri 03:41:45 PM 40.7667 -73.4167 90° East 126 145 1,000 -655 Descending New TRACON
Fri 03:42:45 PM 40.7500 -73.4167 180° South 68 78 400 -600 Descending New TRACON
Fri 03:44:00 PM 40.7288 -73.4134 159° South  Level Estimated
Fri 03:51:00 PM 40.7288 -73.4134 78° East  Level Estimated
Fri 03:52:00 PM 40.7288 -73.4134 78° East  Level Estimated

Login

Don't have an account? Register now (free) for customized features, flight alerts, and more!